Time;durP1;ratioP1;P1;durP2;ratioP2;P2;SDS_P1;SDS_P2;PMS_P1;PMS_P2;Temp;Humidity;BMP_temperature;BMP_pressure;BME280_temperature;BME280_humidity;BME280_pressure;Samples;Min_cycle;Max_cycle;Signal;HPM_P1;HPM_P2
2021/05/25 00:01:53;;;;;;;;;;;8.70;99.90;;;;;;10575070;28;20086;-63
2021/05/25 00:06:55;;;;;;;;;;;8.60;99.90;;;;;;10571638;28;20002;-64
2021/05/25 00:11:56;;;;;;;;;;;8.60;99.90;;;;;;10571188;28;19928;-64
2021/05/25 00:16:58;;;;;;;;;;;8.60;99.90;;;;;;10571737;28;19930;-64
2021/05/25 00:22:00;;;;;;;;;;;8.50;99.90;;;;;;10572041;28;20368;-64
2021/05/25 00:27:01;;;;;;;;;;;8.50;99.90;;;;;;10572841;28;20288;-64
2021/05/25 00:32:02;;;;;;;;;;;8.50;99.90;;;;;;10574924;28;19942;-64
2021/05/25 00:37:04;;;;;;;;;;;8.40;99.90;;;;;;10574684;28;19930;-63
2021/05/25 00:42:05;;;;;;;;;;;8.40;99.90;;;;;;10576054;28;19950;-64
2021/05/25 00:47:06;;;;;;;;;;;8.40;99.90;;;;;;10581751;28;20306;-64
2021/05/25 00:52:08;;;;;;;;;;;8.30;99.90;;;;;;10582649;28;20007;-64
2021/05/25 00:57:09;;;;;;;;;;;8.20;99.90;;;;;;10582537;28;19930;-64
2021/05/25 01:02:10;;;;;;;;;;;8.20;99.90;;;;;;10582392;28;19930;-63
2021/05/25 01:07:13;;;;;;;;;;;8.20;99.90;;;;;;10582119;28;20006;-63
2021/05/25 01:12:15;;;;;;;;;;;8.10;99.90;;;;;;10579293;28;19963;-64
2021/05/25 01:17:16;;;;;;;;;;;8.20;99.90;;;;;;10577755;28;19924;-63
2021/05/25 01:22:18;;;;;;;;;;;8.20;99.90;;;;;;10576951;28;19935;-64
2021/05/25 01:27:19;;;;;;;;;;;8.30;99.90;;;;;;10576593;28;19927;-63
2021/05/25 01:32:20;;;;;;;;;;;8.40;99.90;;;;;;10576260;28;19927;-63
2021/05/25 01:37:22;;;;;;;;;;;8.40;99.90;;;;;;10576894;28;19931;-64
2021/05/25 01:42:30;;;;;;;;;;;8.30;99.90;;;;;;10578159;28;19928;-63
2021/05/25 01:47:31;;;;;;;;;;;8.20;99.90;;;;;;10578718;28;20899;-63
2021/05/25 01:52:33;;;;;;;;;;;8.10;99.90;;;;;;10577589;28;19931;-63
2021/05/25 01:57:35;;;;;;;;;;;8.10;99.90;;;;;;10578961;28;20034;-63
2021/05/25 02:02:36;;;;;;;;;;;7.80;99.90;;;;;;10578985;28;19981;-64
2021/05/25 02:07:38;;;;;;;;;;;7.80;99.90;;;;;;10578909;28;19934;-63
2021/05/25 02:12:39;;;;;;;;;;;7.70;99.90;;;;;;10578441;28;19924;-63
2021/05/25 02:17:40;;;;;;;;;;;7.70;99.90;;;;;;10578118;28;20392;-63
2021/05/25 02:22:42;;;;;;;;;;;7.60;99.90;;;;;;10577400;28;19924;-64
2021/05/25 02:27:43;;;;;;;;;;;7.70;99.90;;;;;;10577458;28;19924;-63
2021/05/25 02:32:44;;;;;;;;;;;7.80;99.90;;;;;;10579421;28;19924;-64
2021/05/25 02:37:46;;;;;;;;;;;7.90;99.90;;;;;;10579266;28;20449;-64
2021/05/25 02:42:47;;;;;;;;;;;7.90;99.90;;;;;;10578520;28;19930;-63
2021/05/25 02:47:48;;;;;;;;;;;7.90;99.90;;;;;;10579325;28;19930;-63
2021/05/25 02:52:51;;;;;;;;;;;7.90;99.90;;;;;;10578672;28;19924;-63
2021/05/25 02:57:53;;;;;;;;;;;7.80;99.90;;;;;;10578640;28;20015;-63
2021/05/25 03:02:54;;;;;;;;;;;7.70;99.90;;;;;;10578250;28;19924;-64
2021/05/25 03:07:57;;;;;;;;;;;7.70;99.90;;;;;;10577869;28;20364;-63
2021/05/25 03:12:58;;;;;;;;;;;7.70;99.90;;;;;;10578013;28;20039;-64
2021/05/25 03:18:00;;;;;;;;;;;7.70;99.90;;;;;;10577839;28;20022;-63
2021/05/25 03:23:02;;;;;;;;;;;7.90;99.90;;;;;;10577746;28;19927;-63
2021/05/25 03:28:04;;;;;;;;;;;8.00;99.90;;;;;;10577933;28;19955;-63
2021/05/25 03:33:05;;;;;;;;;;;8.00;99.90;;;;;;10577773;28;19963;-63
2021/05/25 03:38:08;;;;;;;;;;;8.00;99.90;;;;;;10576866;28;20371;-63
2021/05/25 03:43:09;;;;;;;;;;;8.10;99.90;;;;;;10576452;28;19994;-64
2021/05/25 03:48:10;;;;;;;;;;;9.40;99.90;;;;;;10577141;28;19924;-63
2021/05/25 03:53:12;;;;;;;;;;;8.30;99.90;;;;;;10577179;28;20010;-64
2021/05/25 04:03:33;;;;;;;;;;;8.50;99.90;;;;;;10575782;28;19939;-64
2021/05/25 04:08:35;;;;;;;;;;;8.60;99.90;;;;;;10576836;28;19924;-64
2021/05/25 04:13:36;;;;;;;;;;;8.50;99.90;;;;;;10576511;28;19931;-64
2021/05/25 04:18:38;;;;;;;;;;;8.50;99.90;;;;;;10581751;28;20394;-64
2021/05/25 04:23:40;;;;;;;;;;;8.40;99.90;;;;;;10584647;28;19924;-64
2021/05/25 04:28:41;;;;;;;;;;;8.40;99.90;;;;;;10584549;28;20368;-64
2021/05/25 04:33:42;;;;;;;;;;;8.60;99.90;;;;;;10583419;28;20303;-64
2021/05/25 04:38:44;;;;;;;;;;;8.80;99.90;;;;;;10583889;28;20279;-64
2021/05/25 04:43:45;;;;;;;;;;;9.90;99.90;;;;;;10583312;28;19923;-64
2021/05/25 04:48:46;;;;;;;;;;;13.20;99.90;;;;;;10583843;28;20010;-64
2021/05/25 04:53:48;;;;;;;;;;;15.60;99.90;;;;;;10583634;28;19928;-64
2021/05/25 04:58:49;;;;;;;;;;;17.10;99.40;;;;;;10582645;28;19946;-64
2021/05/25 05:03:50;;;;;;;;;;;14.70;99.90;;;;;;10582400;28;20298;-64
2021/05/25 05:08:52;;;;;;;;;;;12.30;99.90;;;;;;10582341;28;20306;-64
2021/05/25 05:13:53;;;;;;;;;;;11.20;99.90;;;;;;10582536;28;19927;-64
2021/05/25 05:18:54;;;;;;;;;;;10.90;99.90;;;;;;10581098;28;19923;-64
2021/05/25 05:23:57;;;;;;;;;;;10.80;99.90;;;;;;10580375;28;20332;-64
2021/05/25 05:28:58;;;;;;;;;;;10.70;99.90;;;;;;10580434;28;19939;-64
2021/05/25 05:33:59;;;;;;;;;;;10.80;99.90;;;;;;10580508;28;19927;-64
2021/05/25 05:39:02;;;;;;;;;;;10.80;99.90;;;;;;10580119;28;19924;-64
2021/05/25 05:44:04;;;;;;;;;;;12.20;99.90;;;;;;10579572;28;19931;-64
2021/05/25 05:49:05;;;;;;;;;;;11.10;99.90;;;;;;10579892;28;19928;-64
2021/05/25 05:54:08;;;;;;;;;;;11.00;99.90;;;;;;10579114;28;19928;-65
2021/05/25 05:59:09;;;;;;;;;;;11.10;99.90;;;;;;10574738;28;19963;-64
2021/05/25 06:04:10;;;;;;;;;;;11.90;99.90;;;;;;10576092;28;20384;-65
2021/05/25 06:09:12;;;;;;;;;;;13.30;99.90;;;;;;10575360;28;20665;-64
2021/05/25 06:14:13;;;;;;;;;;;13.30;99.90;;;;;;10573699;28;19928;-64
2021/05/25 06:19:13;;;;;;;;;;;12.30;99.90;;;;;;10575252;28;20325;-64
2021/05/25 06:24:15;;;;;;;;;;;11.80;99.90;;;;;;10575250;28;19967;-64
2021/05/25 06:29:17;;;;;;;;;;;12.10;99.90;;;;;;10576213;28;19931;-64
2021/05/25 06:34:18;;;;;;;;;;;11.70;99.90;;;;;;10575692;28;19948;-64
2021/05/25 06:39:20;;;;;;;;;;;11.40;99.90;;;;;;10575077;28;19934;-64
2021/05/25 06:44:21;;;;;;;;;;;11.50;99.90;;;;;;10572857;28;19936;-63
2021/05/25 06:49:22;;;;;;;;;;;11.60;99.90;;;;;;10574538;28;20422;-63
2021/05/25 06:54:24;;;;;;;;;;;11.80;99.90;;;;;;10576426;28;20684;-64
2021/05/25 06:59:25;;;;;;;;;;;11.80;99.90;;;;;;10575803;28;20299;-64
2021/05/25 07:04:26;;;;;;;;;;;12.20;99.90;;;;;;10576106;28;19973;-64
2021/05/25 07:09:28;;;;;;;;;;;12.10;99.90;;;;;;10576070;28;20395;-63
2021/05/25 07:14:29;;;;;;;;;;;12.10;99.90;;;;;;10576067;28;19928;-64
2021/05/25 07:19:30;;;;;;;;;;;12.40;99.90;;;;;;10575186;28;20341;-63
2021/05/25 07:24:32;;;;;;;;;;;12.50;99.90;;;;;;10575607;28;19964;-62
2021/05/25 07:29:33;;;;;;;;;;;12.80;99.90;;;;;;10575403;28;20383;-61
2021/05/25 07:34:35;;;;;;;;;;;13.10;99.90;;;;;;10574574;28;20354;-65
2021/05/25 07:39:37;;;;;;;;;;;13.10;99.90;;;;;;10574872;28;20031;-68
2021/05/25 07:44:38;;;;;;;;;;;13.00;99.90;;;;;;10576664;28;20006;-69
2021/05/25 07:49:39;;;;;;;;;;;12.90;99.90;;;;;;10575563;28;19979;-68
2021/05/25 07:54:41;;;;;;;;;;;13.00;99.90;;;;;;10581822;28;20384;-67
2021/05/25 07:59:43;;;;;;;;;;;13.20;99.90;;;;;;10581690;28;20295;-66
2021/05/25 08:04:44;;;;;;;;;;;13.50;99.90;;;;;;10582477;28;19950;-68
2021/05/25 08:09:46;;;;;;;;;;;13.70;99.90;;;;;;10581630;28;20033;-68
2021/05/25 08:14:47;;;;;;;;;;;14.00;99.90;;;;;;10581559;28;19955;-68
2021/05/25 08:19:50;;;;;;;;;;;13.50;99.90;;;;;;10582673;28;19924;-68
2021/05/25 08:24:52;;;;;;;;;;;13.40;99.90;;;;;;10581605;28;20400;-67
2021/05/25 08:29:53;;;;;;;;;;;13.70;99.90;;;;;;10580535;28;19928;-68
2021/05/25 08:34:54;;;;;;;;;;;14.30;99.90;;;;;;10582267;28;19977;-65
2021/05/25 08:39:56;;;;;;;;;;;15.10;98.20;;;;;;10581757;28;19932;-68
2021/05/25 08:44:57;;;;;;;;;;;17.40;92.90;;;;;;10580841;28;20015;-69
2021/05/25 08:49:58;;;;;;;;;;;19.70;81.20;;;;;;10582461;28;19967;-68
2021/05/25 08:55:02;;;;;;;;;;;20.70;72.40;;;;;;10578909;28;20312;-65
2021/05/25 09:00:04;;;;;;;;;;;20.80;69.30;;;;;;10580648;28;20364;-67
2021/05/25 09:05:06;;;;;;;;;;;21.10;64.60;;;;;;10580174;28;20006;-67
2021/05/25 09:10:10;;;;;;;;;;;21.40;66.40;;;;;;10580315;28;19923;-66
2021/05/25 09:15:14;;;;;;;;;;;22.00;65.30;;;;;;10579076;28;20014;-68
2021/05/25 09:20:15;;;;;;;;;;;22.20;63.10;;;;;;10578835;28;19986;-66
2021/05/25 09:25:20;;;;;;;;;;;21.10;62.30;;;;;;10579747;28;19935;-67
2021/05/25 09:30:22;;;;;;;;;;;19.40;62.40;;;;;;10580005;28;19924;-69
2021/05/25 09:35:24;;;;;;;;;;;16.10;64.10;;;;;;10579682;28;19927;-68
2021/05/25 09:40:27;;;;;;;;;;;19.40;66.10;;;;;;10579293;28;20027;-67
2021/05/25 09:45:28;;;;;;;;;;;18.80;67.10;;;;;;10578360;28;20661;-67
2021/05/25 09:50:29;;;;;;;;;;;19.10;68.50;;;;;;10578301;28;19923;-67
2021/05/25 09:55:32;;;;;;;;;;;20.10;64.40;;;;;;10577373;28;19928;-67
2021/05/25 10:00:35;;;;;;;;;;;21.20;60.50;;;;;;10577642;28;19971;-67
2021/05/25 10:05:37;;;;;;;;;;;21.30;58.00;;;;;;10577369;28;19935;-65
2021/05/25 10:10:39;;;;;;;;;;;20.00;60.00;;;;;;10576512;28;20051;-64
2021/05/25 10:15:42;;;;;;;;;;;18.60;64.50;;;;;;10576358;28;19930;-64
2021/05/25 10:20:43;;;;;;;;;;;17.70;69.90;;;;;;10574749;28;20030;-64
2021/05/25 10:25:47;;;;;;;;;;;17.30;72.50;;;;;;10572819;28;19923;-64
2021/05/25 10:30:50;;;;;;;;;;;17.10;71.90;;;;;;10573661;28;20374;-65
2021/05/25 10:35:52;;;;;;;;;;;17.20;67.80;;;;;;10573620;28;19935;-64
2021/05/25 10:40:55;;;;;;;;;;;17.00;67.20;;;;;;10576753;28;19935;-65
2021/05/25 10:46:11;;;;;;;;;;;16.60;68.70;;;;;;10576282;28;20350;-64
2021/05/25 10:51:12;;;;;;;;;;;16.00;69.30;;;;;;10575336;28;20491;-64
2021/05/25 10:56:24;;;;;;;;;;;15.70;71.90;;;;;;10573952;28;19932;-64
2021/05/25 11:01:28;;;;;;;;;;;15.30;75.90;;;;;;10574309;28;19981;-64
2021/05/25 11:06:30;;;;;;;;;;;15.40;78.40;;;;;;10574543;28;20015;-65
2021/05/25 11:11:32;;;;;;;;;;;15.30;81.00;;;;;;10574111;28;19924;-64
2021/05/25 11:16:34;;;;;;;;;;;14.80;86.70;;;;;;10574388;28;19935;-63
2021/05/25 11:22:02;;;;;;;;;;;14.00;95.60;;;;;;10573892;28;19938;-63
2021/05/25 11:27:07;;;;;;;;;;;12.80;99.90;;;;;;10573871;28;20011;-63
2021/05/25 11:32:11;;;;;;;;;;;12.20;99.90;;;;;;10573890;28;19976;-63
2021/05/25 11:37:16;;;;;;;;;;;12.50;99.90;;;;;;10573928;28;19931;-63
2021/05/25 11:42:21;;;;;;;;;;;13.10;99.90;;;;;;10572745;28;19931;-63
2021/05/25 11:47:23;;;;;;;;;;;13.30;99.90;;;;;;10573579;28;19928;-64
2021/05/25 11:52:26;;;;;;;;;;;13.40;99.90;;;;;;10574226;28;20023;-64
2021/05/25 11:57:29;;;;;;;;;;;13.50;99.90;;;;;;10574170;28;20277;-64
2021/05/25 12:02:31;;;;;;;;;;;13.60;99.90;;;;;;10572685;28;19973;-63
2021/05/25 12:07:33;;;;;;;;;;;13.50;99.90;;;;;;10572991;28;19927;-64
2021/05/25 12:12:39;;;;;;;;;;;13.10;99.90;;;;;;10573051;28;19931;-63
2021/05/25 12:17:42;;;;;;;;;;;12.40;99.90;;;;;;10572640;28;19974;-64
2021/05/25 12:22:43;;;;;;;;;;;12.70;99.90;;;;;;10572681;28;19924;-65
2021/05/25 12:27:45;;;;;;;;;;;13.00;99.90;;;;;;10572445;28;19973;-63
2021/05/25 12:32:47;;;;;;;;;;;13.10;99.90;;;;;;10572279;28;20018;-64
2021/05/25 12:38:01;;;;;;;;;;;13.50;99.90;;;;;;10574414;28;19927;-64
2021/05/25 12:43:20;;;;;;;;;;;13.90;99.90;;;;;;10579680;28;20015;-63
2021/05/25 12:48:32;;;;;;;;;;;14.20;99.90;;;;;;10579837;28;19943;-62
2021/05/25 12:53:47;;;;;;;;;;;14.10;99.70;;;;;;10579975;28;19935;-64
2021/05/25 12:58:49;;;;;;;;;;;13.30;99.90;;;;;;10579434;28;20437;-63
2021/05/25 13:03:51;;;;;;;;;;;12.10;99.90;;;;;;10580499;28;20018;-63
2021/05/25 13:09:03;;;;;;;;;;;11.60;99.90;;;;;;10580974;28;19975;-66
2021/05/25 13:14:05;;;;;;;;;;;11.50;99.90;;;;;;10580383;28;19923;-67
2021/05/25 13:19:07;;;;;;;;;;;11.70;99.90;;;;;;10580309;28;19982;-67
2021/05/25 13:24:13;;;;;;;;;;;11.70;99.90;;;;;;10579604;28;19924;-64
2021/05/25 13:29:18;;;;;;;;;;;12.10;99.90;;;;;;10580004;28;19930;-64
2021/05/25 13:34:20;;;;;;;;;;;13.10;99.90;;;;;;10579994;28;19930;-64
2021/05/25 13:39:23;;;;;;;;;;;14.30;99.90;;;;;;10579583;28;20661;-64
2021/05/25 13:44:25;;;;;;;;;;;14.30;99.90;;;;;;10579300;28;20012;-65
2021/05/25 13:49:26;;;;;;;;;;;14.40;99.90;;;;;;10579320;28;20441;-64
2021/05/25 13:54:27;;;;;;;;;;;13.90;99.90;;;;;;10579849;28;19927;-65
2021/05/25 13:59:35;;;;;;;;;;;13.60;99.90;;;;;;10579004;28;19993;-64
2021/05/25 14:04:36;;;;;;;;;;;13.80;99.90;;;;;;10578387;28;20004;-65
2021/05/25 14:09:37;;;;;;;;;;;13.50;99.90;;;;;;10578625;28;19923;-64
2021/05/25 14:14:39;;;;;;;;;;;12.90;99.90;;;;;;10578121;28;19924;-64
2021/05/25 14:19:40;;;;;;;;;;;12.60;99.90;;;;;;10577268;28;20269;-64
2021/05/25 14:24:42;;;;;;;;;;;12.50;99.90;;;;;;10578139;28;19927;-65
2021/05/25 14:29:45;;;;;;;;;;;12.80;99.90;;;;;;10577276;28;19959;-65
2021/05/25 14:34:47;;;;;;;;;;;12.70;99.90;;;;;;10576776;28;19927;-64
2021/05/25 14:39:48;;;;;;;;;;;12.70;99.90;;;;;;10577401;28;20015;-66
2021/05/25 14:44:50;;;;;;;;;;;13.40;99.90;;;;;;10576517;28;19923;-65
2021/05/25 14:49:51;;;;;;;;;;;13.80;99.90;;;;;;10576789;28;20011;-65
2021/05/25 14:54:53;;;;;;;;;;;13.50;99.90;;;;;;10576799;28;19970;-64
2021/05/25 14:59:57;;;;;;;;;;;13.10;99.90;;;;;;10575219;28;21276;-65
2021/05/25 15:05:04;;;;;;;;;;;13.30;99.90;;;;;;10576446;28;19927;-65
2021/05/25 15:10:07;;;;;;;;;;;13.50;99.90;;;;;;10576193;28;19934;-65
2021/05/25 15:15:10;;;;;;;;;;;13.80;99.90;;;;;;10575598;28;19923;-65
2021/05/25 15:20:12;;;;;;;;;;;14.00;99.90;;;;;;10573898;28;19924;-66
2021/05/25 15:25:14;;;;;;;;;;;14.20;99.90;;;;;;10573748;28;20035;-65
2021/05/25 15:30:29;;;;;;;;;;;14.50;99.60;;;;;;10574846;28;19931;-65
2021/05/25 15:35:32;;;;;;;;;;;14.70;99.10;;;;;;10575572;28;19963;-65
2021/05/25 15:40:37;;;;;;;;;;;15.00;98.00;;;;;;10574973;28;19967;-65
2021/05/25 15:45:40;;;;;;;;;;;14.80;97.70;;;;;;10574453;28;20372;-65
2021/05/25 15:50:42;;;;;;;;;;;14.80;98.00;;;;;;10575178;28;19923;-66
2021/05/25 15:55:43;;;;;;;;;;;14.80;96.70;;;;;;10574903;28;19931;-64
2021/05/25 16:00:46;;;;;;;;;;;15.90;97.70;;;;;;10574579;28;20613;-64
2021/05/25 16:05:48;;;;;;;;;;;14.30;97.70;;;;;;10574743;28;19928;-64
2021/05/25 16:10:49;;;;;;;;;;;14.20;98.60;;;;;;10574238;28;19924;-65
2021/05/25 16:15:51;;;;;;;;;;;14.10;98.30;;;;;;10581449;28;19928;-65
2021/05/25 16:20:52;;;;;;;;;;;14.00;98.00;;;;;;10582288;28;19958;-64
2021/05/25 16:25:54;;;;;;;;;;;13.70;98.30;;;;;;10582673;28;19934;-65
2021/05/25 16:30:56;;;;;;;;;;;13.40;99.60;;;;;;10582499;28;19972;-65
2021/05/25 16:35:57;;;;;;;;;;;13.10;99.90;;;;;;10582159;28;19967;-65
2021/05/25 16:40:58;;;;;;;;;;;12.90;99.90;;;;;;10581796;28;19928;-64
2021/05/25 16:46:00;;;;;;;;;;;12.50;99.90;;;;;;10581158;28;19989;-64
2021/05/25 16:51:02;;;;;;;;;;;11.90;99.90;;;;;;10581284;28;20508;-65
2021/05/25 16:56:03;;;;;;;;;;;11.50;99.90;;;;;;10581620;28;20014;-64
2021/05/25 17:06:33;;;;;;;;;;;11.10;99.90;;;;;;10579742;28;19931;-64
2021/05/25 17:11:45;;;;;;;;;;;11.00;99.90;;;;;;10581229;28;20322;-65
2021/05/25 17:22:06;;;;;;;;;;;11.10;99.90;;;;;;10579835;28;19927;-65
2021/05/25 17:27:07;;;;;;;;;;;11.70;99.90;;;;;;10580377;28;20023;-65
2021/05/25 17:32:09;;;;;;;;;;;11.80;99.90;;;;;;10579957;28;20371;-65
2021/05/25 17:37:11;;;;;;;;;;;11.60;99.90;;;;;;10578285;28;19923;-65
2021/05/25 17:42:12;;;;;;;;;;;12.10;99.90;;;;;;10578223;28;19928;-64
2021/05/25 17:47:14;;;;;;;;;;;11.30;99.90;;;;;;10578239;28;20026;-65
2021/05/25 17:52:15;;;;;;;;;;;11.00;99.90;;;;;;10578174;28;19931;-68
2021/05/25 17:57:17;;;;;;;;;;;10.70;99.90;;;;;;10578541;28;19964;-66
2021/05/25 18:02:19;;;;;;;;;;;10.60;99.90;;;;;;10578792;28;20010;-65
2021/05/25 18:07:25;;;;;;;;;;;10.40;99.90;;;;;;10578406;28;19931;-64
2021/05/25 18:12:27;;;;;;;;;;;10.10;99.90;;;;;;10578843;28;19928;-64
2021/05/25 18:17:29;;;;;;;;;;;10.00;99.90;;;;;;10578616;28;20010;-64
2021/05/25 18:22:30;;;;;;;;;;;8.00;99.90;;;;;;10577806;28;19930;-65
2021/05/25 18:27:31;;;;;;;;;;;10.10;99.90;;;;;;10577634;28;20015;-64
2021/05/25 18:32:37;;;;;;;;;;;10.10;99.90;;;;;;10577243;28;19928;-67
2021/05/25 18:37:54;;;;;;;;;;;10.10;99.90;;;;;;10576448;28;20015;-66
2021/05/25 18:42:56;;;;;;;;;;;10.10;99.90;;;;;;10577172;28;19931;-67
2021/05/25 18:47:58;;;;;;;;;;;10.10;99.90;;;;;;10576432;28;19924;-68
2021/05/25 18:53:00;;;;;;;;;;;10.00;99.90;;;;;;10576026;28;19947;-67
2021/05/25 18:58:04;;;;;;;;;;;10.10;99.90;;;;;;10576178;28;20074;-69
2021/05/25 19:03:06;;;;;;;;;;;10.10;99.90;;;;;;10576103;28;20011;-67
2021/05/25 19:08:07;;;;;;;;;;;10.10;99.90;;;;;;10576496;28;20010;-69
2021/05/25 19:13:08;;;;;;;;;;;10.10;99.90;;;;;;10575813;28;19924;-68
2021/05/25 19:18:10;;;;;;;;;;;10.10;99.90;;;;;;10575759;28;20027;-68
2021/05/25 19:23:15;;;;;;;;;;;10.10;99.90;;;;;;10575949;28;19927;-70
2021/05/25 19:28:16;;;;;;;;;;;10.10;99.90;;;;;;10575428;28;19928;-69
2021/05/25 19:33:18;;;;;;;;;;;10.10;99.90;;;;;;10575676;28;19966;-69
2021/05/25 19:38:19;;;;;;;;;;;10.10;99.90;;;;;;10575115;28;19931;-70
2021/05/25 19:43:20;;;;;;;;;;;10.00;99.90;;;;;;10572394;28;20403;-70
2021/05/25 19:48:23;;;;;;;;;;;10.00;99.90;;;;;;10582379;28;19927;-70
2021/05/25 19:53:24;;;;;;;;;;;10.00;99.90;;;;;;10588547;28;19981;-70
2021/05/25 19:58:25;;;;;;;;;;;10.00;99.90;;;;;;10588330;28;19964;-69
2021/05/25 20:03:28;;;;;;;;;;;10.00;99.90;;;;;;10588015;28;20332;-68
2021/05/25 20:08:29;;;;;;;;;;;10.00;99.90;;;;;;10587975;28;19931;-69
2021/05/25 20:13:31;;;;;;;;;;;9.90;99.90;;;;;;10588413;28;19924;-68
2021/05/25 20:18:33;;;;;;;;;;;9.90;99.90;;;;;;10587862;28;19927;-68
2021/05/25 20:23:34;;;;;;;;;;;9.80;99.90;;;;;;10587831;28;19923;-68
2021/05/25 20:28:36;;;;;;;;;;;9.70;99.90;;;;;;10587705;28;19924;-68
2021/05/25 20:33:45;;;;;;;;;;;9.50;99.90;;;;;;10587720;28;19935;-68
2021/05/25 20:38:49;;;;;;;;;;;6.90;99.90;;;;;;10587631;28;19928;-69
2021/05/25 20:43:50;;;;;;;;;;;9.30;99.90;;;;;;10586658;28;20302;-68
2021/05/25 20:48:52;;;;;;;;;;;9.30;99.90;;;;;;10587387;28;19934;-69
2021/05/25 20:53:53;;;;;;;;;;;9.30;99.90;;;;;;10586945;28;19930;-69
2021/05/25 20:58:54;;;;;;;;;;;9.30;99.90;;;;;;10583726;28;20003;-69
2021/05/25 21:03:56;;;;;;;;;;;9.30;99.90;;;;;;10579969;28;19927;-69
2021/05/25 21:08:57;;;;;;;;;;;9.50;99.90;;;;;;10580164;28;19924;-69
2021/05/25 21:13:59;;;;;;;;;;;9.60;99.90;;;;;;10579649;28;20344;-69
2021/05/25 21:19:01;;;;;;;;;;;9.50;99.90;;;;;;10579868;28;19967;-69
2021/05/25 21:24:02;;;;;;;;;;;9.40;99.90;;;;;;10579656;28;20354;-69
2021/05/25 21:29:04;;;;;;;;;;;9.30;99.90;;;;;;10578778;28;19949;-69
2021/05/25 21:34:06;;;;;;;;;;;9.10;99.90;;;;;;10580662;28;19924;-69
2021/05/25 21:39:07;;;;;;;;;;;9.00;99.90;;;;;;10581840;28;19973;-69
2021/05/25 21:44:08;;;;;;;;;;;8.90;99.90;;;;;;10579339;28;19949;-69
2021/05/25 21:49:10;;;;;;;;;;;8.90;99.90;;;;;;10580413;28;19928;-70
2021/05/25 21:54:11;;;;;;;;;;;8.90;99.90;;;;;;10580286;28;20256;-69
2021/05/25 21:59:12;;;;;;;;;;;9.00;99.90;;;;;;10580699;28;20022;-69
2021/05/25 22:04:14;;;;;;;;;;;9.00;99.90;;;;;;10579997;28;20050;-69
2021/05/25 22:09:16;;;;;;;;;;;9.00;99.90;;;;;;10579204;28;19959;-69
2021/05/25 22:14:17;;;;;;;;;;;9.20;99.90;;;;;;10579475;28;19924;-69
2021/05/25 22:19:19;;;;;;;;;;;9.30;99.90;;;;;;10580146;28;20007;-69
2021/05/25 22:24:20;;;;;;;;;;;9.50;99.90;;;;;;10579781;28;19923;-69
2021/05/25 22:29:21;;;;;;;;;;;9.70;99.90;;;;;;10579495;28;20386;-70
2021/05/25 22:34:23;;;;;;;;;;;9.80;99.90;;;;;;10579061;28;19924;-69
2021/05/25 22:39:24;;;;;;;;;;;10.00;99.90;;;;;;10577182;28;19936;-69
2021/05/25 22:44:25;;;;;;;;;;;10.10;99.90;;;;;;10576070;28;19968;-68
2021/05/25 22:49:27;;;;;;;;;;;10.30;99.90;;;;;;10575373;28;20413;-68
2021/05/25 22:54:29;;;;;;;;;;;10.20;99.90;;;;;;10574960;28;20544;-68
2021/05/25 22:59:30;;;;;;;;;;;9.80;99.90;;;;;;10575623;28;19928;-68
2021/05/25 23:04:32;;;;;;;;;;;9.60;99.90;;;;;;10577825;28;19928;-69
2021/05/25 23:09:33;;;;;;;;;;;9.60;99.90;;;;;;10578262;28;20014;-68
2021/05/25 23:14:34;;;;;;;;;;;9.60;99.90;;;;;;10577578;28;20344;-69
2021/05/25 23:19:36;;;;;;;;;;;9.60;99.90;;;;;;10576546;28;20014;-68
2021/05/25 23:24:37;;;;;;;;;;;9.60;99.90;;;;;;10576912;28;19923;-69
2021/05/25 23:29:39;;;;;;;;;;;9.70;99.90;;;;;;10576707;28;19927;-69
2021/05/25 23:34:41;;;;;;;;;;;9.90;99.90;;;;;;10576110;28;19950;-69
2021/05/25 23:39:43;;;;;;;;;;;10.10;99.90;;;;;;10575716;28;19927;-69
2021/05/25 23:44:44;;;;;;;;;;;10.30;99.90;;;;;;10574821;28;20004;-68
2021/05/25 23:49:46;;;;;;;;;;;10.40;99.90;;;;;;10575134;28;20021;-69
2021/05/25 23:54:47;;;;;;;;;;;10.50;99.90;;;;;;10574660;28;20018;-69
2021/05/25 23:59:49;;;;;;;;;;;10.60;99.90;;;;;;10574339;28;19959;-69
